Latest Coastal Weather Observations for Merimbula

IDN60701

Issued at 11:51 am EDT Sunday 26 February 2017 (issued every 10 minutes, with the page automatically refreshed every 10 minutes)

About coastal observations | Map of coastal stations | Coastal observations for NSW | Marine services | Other Formats
Station Details ID: 069147 Name: MERIMBULA AIRPORT AWS Lat: -36.91 Lon: 149.90 Height: 1.5 m
Data from the previous 72 hours. | See also: Recent months at Merimbula
Date/Time
EDT
Temp
°C
Wind Pressure Rain since
9am
mm
Weather Cloud Vis
km
Sea
Height
m
Swell
Dir  Spd
kts
Gust
kts
hPa Trend Height
m
Period
s
Dir
26/11:30am 21.9 E 6 11 1025.9 - 0.0 - Partly cloudy - - - - -
26/11:00am 20.4 ESE 6 10 1026.1 - 0.0 - Partly cloudy - - - - -
26/10:30am 20.3 ESE 6 9 1026.0 - 0.0 - Cloudy - - - - -
26/10:00am 19.1 SSE 3 8 1025.9 - 0.0 - Cloudy - - - - -
26/09:30am 18.5 CALM 0 0 1025.6 - 0.0 - Cloudy - - - - -
26/09:00am 18.2 CALM 0 0 1025.7 - 0.4 - Mostly cloudy - - - - -
26/08:30am 18.0 CALM 0 0 1025.5 - 0.4 - Partly cloudy - - - - -
26/08:00am 17.1 CALM 0 0 1025.2 - 0.4 - Partly cloudy - - - - -
26/07:30am 16.0 SW 1 5 1025.0 - 0.4 - Partly cloudy - - - - -
26/07:00am 15.6 CALM 0 0 1024.6 - 0.4 - Partly cloudy - - - - -
26/06:30am 15.4 CALM 0 0 1024.3 - 0.4 - Partly cloudy - - - - -
26/06:00am 15.6 CALM 0 0 1023.8 - 0.4 - Cloudy - - - - -
26/05:30am 15.8 CALM 0 0 1023.5 - 0.4 - Partly cloudy - - - - -
26/05:00am 16.3 CALM 0 0 1023.5 - 0.4 - Partly cloudy - - - - -
26/04:30am 16.4 WNW 4 6 1023.5 - 0.4 - Partly cloudy - - - - -
26/04:00am 16.3 WNW 4 5 1023.6 - 0.4 - Partly cloudy - - - - -
26/03:30am 16.1 CALM 0 0 1023.6 - 0.4 - Partly cloudy - - - - -
26/03:00am 16.3 CALM 0 0 1023.8 - 0.4 - Cloudy - - - - -
26/02:30am 16.5 WSW 4 4 1023.8 - 0.4 - Partly cloudy - - - - -
26/02:00am 16.5 WNW 4 5 1024.0 - 0.4 - Partly cloudy - - - - -
26/01:30am 16.8 WNW 4 6 1024.3 - 0.4 - Partly cloudy - - - - -
26/01:00am 16.9 WNW 4 5 1024.6 - 0.4 - Partly cloudy - - - - -
26/12:30am 16.9 W 5 6 1024.6 - 0.4 - Partly cloudy - - - - -
26/12:00am 17.0 WSW 3 5 1024.8 - 0.4 - Cloudy - - - - -
 
Date/Time
EDT
Temp
°C
Wind Pressure Rain since
9am
mm
Weather Cloud Vis
km
Sea
Height
m
Swell
Dir  Spd
kts
Gust
kts
hPa Trend Height
m
Period
s
Dir
25/11:30pm 17.2 SSW 2 4 1024.8 - 0.4 - Partly cloudy - - - - -
25/11:00pm 17.6 SSW 5 8 1024.9 - 0.4 - Partly cloudy - - - - -
25/10:30pm 18.8 SE 7 11 1024.9 - 0.4 - Partly cloudy - - - - -
25/10:00pm 18.7 SE 8 14 1024.8 - 0.4 - Partly cloudy - - - - -
25/09:30pm 18.8 SE 10 15 1024.7 - 0.4 - Partly cloudy - - - - -
25/09:00pm 18.7 SE 9 15 1024.4 - 0.4 - Cloudy - - - - -
25/08:30pm 18.6 SSE 8 12 1024.0 - 0.4 - Partly cloudy - - - - -
25/08:00pm 18.5 SE 8 15 1023.7 - 0.4 - Cloudy - - - - -
25/07:30pm 18.5 ESE 8 15 1023.3 - 0.4 - Partly cloudy - - - - -
25/07:00pm 17.0 S 5 10 1023.0 - 0.4 - Partly cloudy - - - - -
25/06:30pm 17.3 SW 5 7 1022.8 - 0.4 - Partly cloudy - - - - -
25/06:00pm 18.1 SSE 6 9 1022.9 - 0.0 - Cloudy - - - - -
25/05:30pm 19.0 SSE 4 7 1022.7 - 0.0 - Partly cloudy - - - - -
25/05:00pm 18.4 CALM 0 0 1022.7 - 0.0 - Partly cloudy - - - - -
25/04:30pm 18.8 WSW 4 6 1022.9 - 0.0 - Partly cloudy - - - - -
25/04:00pm 18.9 SSW 3 7 1022.8 - 0.0 - Cloudy - - - - -
25/03:30pm 18.8 SSE 6 9 1023.0 - 0.0 - Partly cloudy - - - - -
25/03:00pm 19.4 SSE 9 13 1023.1 - 0.0 - Cloudy - - - - -
25/02:30pm 19.7 SSE 10 13 1023.4 - 0.0 - Cloudy - - - - -
25/02:00pm 19.5 NNW 5 7 1023.5 - 0.0 - Partly cloudy - - - - -
25/01:30pm 18.2 W 4 7 1023.8 - 0.0 - Partly cloudy - - - - -
25/01:00pm 19.0 S 8 14 1023.9 - 0.0 - Partly cloudy - - - - -
25/12:30pm 20.3 SSE 6 11 1023.6 - 0.0 - Partly cloudy - - - - -
25/12:00pm 19.9 SSW 6 10 1023.7 - 0.0 - Cloudy - - - - -
25/11:30am 20.3 S 7 9 1023.7 - 0.0 - Cloudy - - - - -
25/11:00am 20.6 SSW 5 8 1023.6 - 0.0 - Partly cloudy - - - - -
25/10:30am 20.9 SW 6 11 1023.5 - 0.0 - Cloudy - - - - -
25/10:00am 20.9 SW 7 10 1023.6 - 0.0 - Partly cloudy - - - - -
25/09:30am 19.9 SW 5 8 1023.5 - 0.0 - Partly cloudy - - - - -
25/09:00am 18.3 SSW 4 5 1023.3 - 0.0 - Cloudy - - - - -
25/08:30am 17.9 W 5 6 1023.1 - 0.0 - Cloudy - - - - -
25/08:00am 17.3 WNW 4 6 1022.9 - 0.0 - Cloudy - - - - -
25/07:30am 15.0 SW 3 4 1022.9 - 0.0 - Partly cloudy - - - - -
25/07:00am 14.1 SW 4 5 1022.8 - 0.0 - Cloudy - - - - -
25/06:30am 14.6 WSW 5 7 1022.6 - 0.0 - Cloudy - - - - -
25/06:00am 14.5 W 7 10 1022.5 - 0.0 - Cloudy - - - - -
25/05:30am 12.4 W 5 7 1022.5 - 0.0 - Partly cloudy - - - - -
25/05:00am 11.9 CALM 0 0 1022.6 - 0.0 - Partly cloudy - - - - -
25/04:30am 12.1 CALM 0 0 1022.6 - 0.0 - Partly cloudy - - - - -
25/04:00am 11.7 CALM 0 0 1022.5 - 0.0 - Partly cloudy - - - - -
25/03:30am 11.6 CALM 0 0 1022.4 - 0.0 - Partly cloudy - - - - -
25/03:00am 12.6 SSW 3 4 1022.5 - 0.0 - Mostly clear - - - - -
25/02:30am 13.3 SW 3 5 1022.5 - 0.0 - Partly cloudy - - - - -
25/02:00am 13.8 SSW 4 5 1022.7 - 0.0 - - - - - - -
25/01:30am 14.9 SSW 5 7 1022.9 - 0.0 - - - - - - -
25/01:00am 15.2 SSW 5 8 1023.1 - 0.0 - - - - - - -
25/12:30am 16.1 SSW 6 9 1023.4 - 0.0 - - - - - - -
25/12:00am 16.7 S 7 11 1023.4 - 0.0 - Mostly cloudy - - - - -
 
Date/Time
EDT
Temp
°C
Wind Pressure Rain since
9am
mm
Weather Cloud Vis
km
Sea
Height
m
Swell
Dir  Spd
kts
Gust
kts
hPa Trend Height
m
Period
s
Dir
24/11:30pm 17.1 SSW 9 15 1023.5 - 0.0 - Partly cloudy - - - - -
24/11:00pm 17.2 SSW 8 12 1023.6 - 0.0 - Cloudy - - - - -
24/10:30pm 17.7 SSW 7 11 1023.6 - 0.0 - Cloudy - - - - -
24/10:00pm 17.8 SSW 7 12 1023.7 - 0.0 - Cloudy - - - - -
24/09:30pm 17.9 SSW 9 14 1023.7 - 0.0 - Cloudy - - - - -
24/09:00pm 18.1 SSW 7 11 1023.4 - 0.0 - Cloudy - - - - -
24/08:30pm 18.3 SSW 9 13 1023.0 - 0.0 - Cloudy - - - - -
24/08:00pm 18.5 SSW 8 13 1022.7 - 0.0 - Cloudy - - - - -
24/07:30pm 18.9 SSW 8 15 1022.2 - 0.0 - Cloudy - - - - -
24/07:00pm 19.2 SSW 9 14 1021.8 - 0.0 - Partly cloudy - - - - -
24/06:30pm 19.6 SSW 11 19 1021.4 - 0.0 - Partly cloudy - - - - -
24/06:00pm 20.1 SSW 11 16 1021.0 - 0.0 - Cloudy - - - - -
24/05:30pm 20.9 S 10 15 1020.7 - 0.0 - Partly cloudy - - - - -
24/05:00pm 21.3 S 11 17 1020.4 - 0.0 - Partly cloudy - - - - -
24/04:30pm 21.6 SE 12 17 1020.1 - 0.0 - Partly cloudy - - - - -
24/04:00pm 20.6 SE 13 20 1020.2 - 0.0 - Cloudy - - - - -
24/03:30pm 21.2 SE 13 20 1020.3 - 0.0 - Cloudy - - - - -
24/03:00pm 22.6 SE 11 17 1020.5 - 0.0 - Cloudy - - - - -
24/02:30pm 22.7 SE 11 16 1020.8 - 0.0 - Partly cloudy - - - - -
24/02:00pm 23.3 ESE 10 14 1021.1 - 0.0 - Partly cloudy - - - - -
24/01:30pm 23.1 E 9 15 1021.1 - 0.0 - Partly cloudy - - - - -
24/01:00pm 22.2 E 7 12 1021.3 - 0.0 - Partly cloudy - - - - -
24/12:30pm 22.6 ESE 7 11 1021.4 - 0.0 - Partly cloudy - - - - -
24/12:00pm 23.3 ESE 7 12 1021.7 - 0.0 - Cloudy - - - - -
24/11:30am 22.9 E 7 11 1021.8 - 0.0 - Cloudy - - - - -
24/11:00am 22.3 E 6 8 1022.0 - 0.0 - Partly cloudy - - - - -
24/10:30am 21.8 ESE 3 5 1022.0 - 0.0 - Partly cloudy - - - - -
24/10:00am 20.9 SSE 1 5 1022.1 - 0.0 - Partly cloudy - - - - -
24/09:30am 20.2 SSW 3 4 1022.2 - 0.0 - Cloudy - - - - -
24/09:00am 19.9 SSW 2 5 1022.0 - 0.0 - Cloudy - - - - -
24/08:30am 19.6 S 2 6 1021.8 - 0.0 - Cloudy - - - - -
24/08:00am 19.0 CALM 0 0 1021.9 - 0.0 - Cloudy - - - - -
24/07:30am 18.8 CALM 0 0 1021.6 - 0.0 - Cloudy - - - - -
24/07:00am 18.6 SSE 1 4 1021.5 - 0.0 - Cloudy - - - - -
24/06:30am 18.7 SSE 4 5 1021.3 - 0.0 - Cloudy - - - - -
24/06:00am 18.6 CALM 0 0 1020.9 - 0.0 - Cloudy - - - - -
24/05:30am 18.9 CALM 0 3 1020.8 - 0.0 - Cloudy - - - - -
24/05:00am 19.0 SE 3 6 1020.8 - 0.0 - Cloudy - - - - -
24/04:30am 18.6 CALM 0 0 1020.7 - 0.0 - Cloudy - - - - -
24/04:00am 18.9 CALM 0 0 1020.7 - 0.0 - Cloudy - - - - -
24/03:30am 18.8 CALM 0 0 1020.6 - 0.0 - Cloudy - - - - -
24/03:00am 18.9 CALM 0 0 1020.6 - 0.0 - Cloudy - - - - -
24/02:30am 19.1 CALM 0 0 1020.7 - 0.0 - Cloudy - - - - -
24/02:00am 19.2 CALM 0 0 1020.8 - 0.0 - Cloudy - - - - -
24/01:30am 19.1 CALM 0 0 1021.0 - 0.0 - Cloudy - - - - -
24/01:00am 19.3 CALM 0 0 1020.9 - 0.0 - Cloudy - - - - -
24/12:30am 19.5 S 4 6 1020.9 - 0.0 - Cloudy - - - - -
24/12:00am 19.5 S 5 8 1020.9 - 0.0 - Cloudy - - - - -
 
Date/Time
EDT
Temp
°C
Wind Pressure Rain since
9am
mm
Weather Cloud Vis
km
Sea
Height
m
Swell
Dir  Spd
kts
Gust
kts
hPa Trend Height
m
Period
s
Dir
23/11:30pm 19.2 S 2 6 1020.7 - 0.0 - Cloudy - - - - -
23/11:00pm 18.2 CALM 0 0 1020.8 - 0.0 - Cloudy - - - - -
23/10:30pm 17.4 SSW 1 5 1020.7 - 0.0 - Partly cloudy - - - - -
23/10:00pm 17.7 SW 3 5 1020.6 - 0.0 - Partly cloudy - - - - -
23/09:30pm 18.4 CALM 0 0 1020.3 - 0.0 - - - - - - -
23/09:00pm 19.9 S 4 6 1020.0 - 0.0 - - - - - - -
23/08:30pm 20.3 S 6 9 1019.4 - 0.0 - - - - - - -
23/08:00pm 20.8 SSE 10 17 1018.8 - 0.0 - - - - - - -
23/07:30pm 21.2 SSE 11 19 1018.4 - 0.0 - - - - - - -
23/07:00pm 21.4 SE 11 15 1018.1 - 0.0 - - - - - - -
23/06:30pm 21.8 SE 12 19 1017.7 - 0.0 - - - - - - -
23/06:00pm 23.1 SE 12 17 1017.2 - 0.0 - - - - - - -
23/05:30pm 23.6 SE 12 17 1016.9 - 0.0 - - - - - - -
23/05:00pm 24.0 SE 13 23 1016.4 - 0.0 - - - - - - -
23/04:30pm 24.6 SE 13 19 1015.9 - 0.0 - - - - - - -
23/04:00pm 24.9 SSE 13 18 1015.7 - 0.0 - - - - - - -
23/03:30pm 24.7 SE 12 19 1015.5 - 0.0 - - - - - - -
23/03:00pm 25.4 SE 12 21 1015.4 - 0.0 - - - - - - -
23/02:30pm 26.2 SE 13 20 1015.2 - 0.0 - - - - - - -
23/02:00pm 26.2 SE 12 16 1014.6 - 0.0 - - - - - - -
23/01:30pm 27.2 E 11 17 1014.5 - 0.0 - - - - - - -
23/01:00pm 28.0 ENE 11 14 1014.4 - 0.0 - - - - - - -
23/12:30pm 28.7 ENE 9 14 1014.6 - 0.0 - - - - - - -
23/12:00pm 28.4 NE 7 11 1014.9 - 0.0 - - - - - - -

Other Formats:

Comma delimited format used in spreadsheet applications
http://www.bom.gov.au/fwo/IDN60701/IDN60701.95929.axf

JavaScript Object Notation format (JSON) in row-major order
http://www.bom.gov.au/fwo/IDN60701/IDN60701.95929.json